createdAt,value
2018-07-11T00:03:47.041Z,96.30
2018-07-11T00:08:50.046Z,96.50
2018-07-11T00:13:53.140Z,96.70
2018-07-11T00:18:56.270Z,97.00
2018-07-11T00:23:59.337Z,96.90
2018-07-11T00:29:02.363Z,97.20
2018-07-11T00:34:05.458Z,97.50
2018-07-11T00:39:08.456Z,97.70
2018-07-11T00:44:11.462Z,97.60
2018-07-11T00:49:14.460Z,97.50
2018-07-11T00:54:17.620Z,97.60
2018-07-11T00:59:23.196Z,97.80
2018-07-11T01:09:30.279Z,98.10
2018-07-11T01:14:33.588Z,98.40
2018-07-11T01:19:37.318Z,98.40
2018-07-11T01:24:40.331Z,98.70
2018-07-11T01:29:43.392Z,99.00
2018-07-11T01:34:46.400Z,98.90
2018-07-11T01:39:49.415Z,99.00
2018-07-11T01:44:52.511Z,99.00
2018-07-11T01:49:55.538Z,98.90
2018-07-11T01:54:58.614Z,98.70
2018-07-11T02:00:01.626Z,99.00
2018-07-11T02:05:04.756Z,98.70
2018-07-11T02:10:07.947Z,99.10
2018-07-11T02:15:11.656Z,98.80
2018-07-11T02:20:16.604Z,99.30
2018-07-11T02:25:20.142Z,99.40
2018-07-11T02:30:23.262Z,99.40
2018-07-11T02:35:26.256Z,99.50
2018-07-11T02:40:29.327Z,99.60
2018-07-11T02:45:32.359Z,99.60
2018-07-11T02:50:35.381Z,99.70
2018-07-11T02:55:38.442Z,99.60
2018-07-11T03:00:41.542Z,99.90
2018-07-11T03:05:44.543Z,99.90
2018-07-11T03:10:47.754Z,99.90
2018-07-11T03:15:50.756Z,99.60
2018-07-11T03:20:53.782Z,99.80
2018-07-11T03:25:56.787Z,99.90
2018-07-11T03:30:59.799Z,99.80
2018-07-11T03:36:02.803Z,99.90
2018-07-11T03:41:05.797Z,99.50
2018-07-11T03:46:08.811Z,99.60
2018-07-11T03:51:11.803Z,99.40
2018-07-11T03:56:14.829Z,99.50
2018-07-11T04:06:20.788Z,99.90
2018-07-11T04:11:23.807Z,99.70
2018-07-11T04:16:26.881Z,99.70
2018-07-11T04:21:29.909Z,99.60
2018-07-11T04:26:32.900Z,99.80
2018-07-11T04:31:36.202Z,99.80
2018-07-11T04:36:39.371Z,99.80
2018-07-11T04:41:42.391Z,99.60
2018-07-11T04:46:45.418Z,99.50
2018-07-11T04:51:48.464Z,99.20
2018-07-11T04:56:51.683Z,99.00
2018-07-11T05:01:54.703Z,98.80
2018-07-11T05:06:57.835Z,98.90
2018-07-11T05:12:00.835Z,99.30
2018-07-11T05:17:03.943Z,99.20
2018-07-11T05:22:06.943Z,99.00
2018-07-11T05:27:09.963Z,98.80
2018-07-11T05:32:12.991Z,98.80
2018-07-11T05:37:16.148Z,98.80
2018-07-11T05:42:19.198Z,98.80
2018-07-11T05:47:22.200Z,98.40
2018-07-11T05:52:25.287Z,98.30
2018-07-11T05:57:28.610Z,98.40
2018-07-11T06:02:31.979Z,98.30
2018-07-11T06:07:35.003Z,98.00
2018-07-11T06:12:38.051Z,97.90
2018-07-11T06:17:41.077Z,97.50
2018-07-11T06:22:44.108Z,98.30
2018-07-11T06:27:47.153Z,97.60
2018-07-11T06:32:50.179Z,97.50
2018-07-11T06:37:53.289Z,97.40
2018-07-11T06:42:56.604Z,96.10
2018-07-11T06:47:59.690Z,96.50
2018-07-11T06:53:02.611Z,96.30
2018-07-11T06:58:05.706Z,95.30
2018-07-11T07:03:08.729Z,95.40
2018-07-11T07:08:11.848Z,95.50
2018-07-11T07:13:14.899Z,95.50
2018-07-11T07:23:20.861Z,94.00
2018-07-11T07:28:23.951Z,93.80
2018-07-11T07:33:26.979Z,93.90
2018-07-11T07:38:30.296Z,94.00
2018-07-11T07:43:33.366Z,93.00
2018-07-11T07:48:36.408Z,92.40
2018-07-11T07:53:39.497Z,92.60
2018-07-11T07:58:42.540Z,92.10
2018-07-11T08:03:45.607Z,92.20
2018-07-11T08:08:48.634Z,91.30
2018-07-11T08:18:54.900Z,91.00
2018-07-11T08:24:09.810Z,87.70
2018-07-11T08:29:37.783Z,88.10
2018-07-11T08:34:52.646Z,89.90
2018-07-11T08:42:09.356Z,90.40
2018-07-11T08:47:27.144Z,88.90
2018-07-11T08:52:43.171Z,88.60
2018-07-11T08:57:53.237Z,88.70
2018-07-11T09:04:11.892Z,87.70
2018-07-11T09:09:28.399Z,82.90
2018-07-11T09:16:51.860Z,82.20
2018-07-11T09:22:07.092Z,79.10
2018-07-11T09:27:10.749Z,79.30
2018-07-11T09:32:14.223Z,78.00
2018-07-11T09:37:17.224Z,76.10
2018-07-11T09:42:20.227Z,73.10
2018-07-11T09:47:27.033Z,76.80
2018-07-11T09:52:30.430Z,77.00
2018-07-11T09:57:34.408Z,73.70
2018-07-11T10:02:37.407Z,73.60
2018-07-11T10:07:40.419Z,73.90
2018-07-11T10:12:43.457Z,71.70
2018-07-11T10:17:46.599Z,72.30
2018-07-11T10:22:49.651Z,70.00
2018-07-11T10:28:04.223Z,71.50
2018-07-11T10:33:07.234Z,71.20
2018-07-11T10:38:11.094Z,68.10
2018-07-11T10:43:14.148Z,67.40
2018-07-11T10:48:17.172Z,66.20
2018-07-11T10:53:20.267Z,67.00
2018-07-11T10:58:23.290Z,68.80
2018-07-11T11:03:28.527Z,70.50
2018-07-11T11:08:31.951Z,68.90
2018-07-11T11:13:34.946Z,67.50
2018-07-11T11:18:38.427Z,67.00
2018-07-11T11:23:41.573Z,66.10
2018-07-11T11:28:44.843Z,66.50
2018-07-11T11:33:47.878Z,62.60
2018-07-11T11:38:50.900Z,62.60
2018-07-11T11:43:53.936Z,64.70
2018-07-11T11:48:56.963Z,59.60
2018-07-11T11:54:00.097Z,60.00
2018-07-11T11:59:03.119Z,61.10
2018-07-11T12:04:06.104Z,61.60
2018-07-11T12:09:09.211Z,60.80
2018-07-11T12:14:12.268Z,60.20
2018-07-11T12:19:15.353Z,60.20
2018-07-11T12:24:19.940Z,61.40
2018-07-11T12:29:22.942Z,61.20
2018-07-11T12:34:25.959Z,62.00
2018-07-11T12:39:29.175Z,62.30
2018-07-11T12:44:32.294Z,59.60
2018-07-11T12:49:35.351Z,60.80
2018-07-11T12:54:38.491Z,60.70
2018-07-11T12:59:41.550Z,59.40
2018-07-11T13:04:44.592Z,61.30
2018-07-11T13:09:47.607Z,55.40
2018-07-11T13:14:50.671Z,57.10
2018-07-11T13:19:53.680Z,56.70
2018-07-11T13:24:56.839Z,56.40
2018-07-11T13:29:59.870Z,55.80
2018-07-11T13:35:03.247Z,55.90
2018-07-11T13:40:06.437Z,56.30
2018-07-11T13:45:09.436Z,55.50
2018-07-11T13:50:12.945Z,55.80
2018-07-11T13:55:16.025Z,57.20
2018-07-11T14:00:19.296Z,57.90
2018-07-11T14:05:22.596Z,57.80
2018-07-11T14:10:25.590Z,58.60
2018-07-11T14:15:28.579Z,58.80
2018-07-11T14:20:31.996Z,59.70
2018-07-11T14:25:36.558Z,59.40
2018-07-11T14:30:40.019Z,56.70
2018-07-11T14:35:43.446Z,59.00
2018-07-11T14:40:46.563Z,63.50
2018-07-11T14:45:49.683Z,64.60
2018-07-11T14:50:52.603Z,63.20
2018-07-11T14:55:55.643Z,63.30
2018-07-11T15:00:58.688Z,60.70
2018-07-11T15:06:01.740Z,62.40
2018-07-11T15:11:04.780Z,64.60
2018-07-11T15:16:07.805Z,68.10
2018-07-11T15:21:11.315Z,69.50
2018-07-11T15:26:14.334Z,70.20
2018-07-11T15:31:17.507Z,65.70
2018-07-11T15:36:20.595Z,59.10
2018-07-11T15:41:23.629Z,60.70
2018-07-11T15:46:26.715Z,62.50
2018-07-11T15:51:29.735Z,63.30
2018-07-11T15:56:33.863Z,65.30
2018-07-11T16:01:53.852Z,65.70
2018-07-11T16:07:01.174Z,66.70
2018-07-11T16:12:04.220Z,67.70
2018-07-11T16:17:07.229Z,66.70
2018-07-11T16:22:10.253Z,64.40
2018-07-11T16:27:13.311Z,62.00
2018-07-11T16:32:16.343Z,60.40
2018-07-11T16:37:19.584Z,58.20
2018-07-11T16:42:22.603Z,55.80
2018-07-11T16:47:26.807Z,56.90
2018-07-11T16:52:29.838Z,58.20
2018-07-11T16:57:40.846Z,56.60
2018-07-11T17:07:51.877Z,57.70
2018-07-11T17:13:27.419Z,59.30
2018-07-11T17:18:38.951Z,59.90
2018-07-11T17:23:47.323Z,60.10
2018-07-11T17:28:50.475Z,62.50
2018-07-11T17:38:56.302Z,64.10
2018-07-11T17:44:02.415Z,63.10
2018-07-11T17:49:14.829Z,64.40
2018-07-11T17:54:17.943Z,65.50
2018-07-11T17:59:31.193Z,64.20
2018-07-11T18:04:40.539Z,65.00
2018-07-11T18:09:51.840Z,64.70
2018-07-11T18:15:30.286Z,65.60
2018-07-11T18:20:42.371Z,65.90
2018-07-11T18:25:53.495Z,66.60
2018-07-11T18:31:10.024Z,67.70
2018-07-11T18:36:53.747Z,68.20
2018-07-11T18:42:08.210Z,67.10
2018-07-11T18:47:19.106Z,65.80
2018-07-11T18:52:29.579Z,65.80
2018-07-11T18:57:42.081Z,67.20
2018-07-11T19:02:55.355Z,68.00
2018-07-11T19:08:09.698Z,70.40
2018-07-11T19:13:24.399Z,70.90
2018-07-11T19:18:37.130Z,71.70
2018-07-11T19:23:52.729Z,71.40
2018-07-11T19:30:11.632Z,71.30
2018-07-11T19:35:22.592Z,71.60
2018-07-11T19:40:37.620Z,72.60
2018-07-11T19:45:49.433Z,73.10
2018-07-11T19:51:06.959Z,73.70
2018-07-11T19:56:18.770Z,75.70
2018-07-11T20:01:21.819Z,79.80
2018-07-11T20:06:24.834Z,84.00
2018-07-11T20:11:28.287Z,85.10
2018-07-11T20:16:31.516Z,87.90
2018-07-11T20:21:34.580Z,90.40
2018-07-11T20:26:37.632Z,91.80
2018-07-11T20:31:40.704Z,92.30
2018-07-11T20:36:43.691Z,93.70
2018-07-11T20:41:46.700Z,95.30
2018-07-11T20:46:49.737Z,95.80
2018-07-11T20:51:52.730Z,96.10
2018-07-11T20:56:55.714Z,97.30
2018-07-11T21:02:10.257Z,97.40
2018-07-11T21:10:35.899Z,97.90
2018-07-11T21:17:56.860Z,98.20
2018-07-11T21:23:00.672Z,98.60
2018-07-11T21:28:03.764Z,98.80
2018-07-11T21:33:06.883Z,98.20
2018-07-11T21:38:09.892Z,98.90
2018-07-11T21:47:04.939Z,98.50
2018-07-11T21:52:07.950Z,98.20
2018-07-11T21:57:10.957Z,98.00
2018-07-11T22:02:13.963Z,98.70
2018-07-11T22:07:16.972Z,98.50
2018-07-11T22:12:19.976Z,98.50
2018-07-11T22:17:34.479Z,98.80
2018-07-11T22:22:36.635Z,99.10
2018-07-11T22:27:38.796Z,99.60
2018-07-11T22:32:40.951Z,99.90
2018-07-11T22:37:43.250Z,99.90
2018-07-11T22:42:45.436Z,99.90
2018-07-11T22:47:47.551Z,99.90
2018-07-11T22:52:49.703Z,99.90
2018-07-11T22:57:52.218Z,99.90
2018-07-11T23:02:54.367Z,99.90
2018-07-11T23:07:56.540Z,99.90
2018-07-11T23:12:58.685Z,99.90
2018-07-11T23:18:00.859Z,99.90
2018-07-11T23:23:03.029Z,99.90
2018-07-11T23:28:05.177Z,99.90
2018-07-11T23:33:07.328Z,99.90
2018-07-11T23:38:09.490Z,99.90
2018-07-11T23:43:11.660Z,99.90
2018-07-11T23:48:14.049Z,99.90
2018-07-11T23:53:16.214Z,99.90
2018-07-11T23:58:18.366Z,99.90
